createdAt,value
2023-03-16T00:02:22.716Z,1.56
2023-03-16T00:04:49.588Z,1.64
2023-03-16T00:07:16.695Z,1.55
2023-03-16T00:09:43.361Z,1.45
2023-03-16T00:12:18.530Z,1.54
2023-03-16T00:14:47.723Z,1.44
2023-03-16T00:17:20.116Z,1.46
2023-03-16T00:19:55.635Z,1.52
2023-03-16T00:22:28.130Z,1.43
2023-03-16T00:24:55.862Z,1.54
2023-03-16T00:27:24.691Z,1.43
2023-03-16T00:29:56.145Z,1.25
2023-03-16T00:32:26.691Z,1.22
2023-03-16T00:34:53.890Z,1.23
2023-03-16T00:37:23.490Z,1.26
2023-03-16T00:39:51.651Z,1.34
2023-03-16T00:42:20.029Z,1.26
2023-03-16T00:44:47.035Z,1.24
2023-03-16T00:47:14.542Z,1.15
2023-03-16T00:49:43.315Z,1.03
2023-03-16T00:52:15.239Z,1.26
2023-03-16T00:54:46.944Z,1.19
2023-03-16T00:57:16.492Z,1.16
2023-03-16T00:59:43.174Z,1.17
2023-03-16T01:02:11.420Z,1.20
2023-03-16T01:04:39.891Z,1.25
2023-03-16T01:07:08.235Z,1.25
2023-03-16T01:09:37.620Z,1.20
2023-03-16T01:12:16.749Z,1.22
2023-03-16T01:14:46.089Z,1.12
2023-03-16T01:17:13.985Z,1.16
2023-03-16T01:19:41.613Z,1.17
2023-03-16T01:22:10.606Z,1.09
2023-03-16T01:24:38.904Z,1.11
2023-03-16T01:27:05.962Z,1.11
2023-03-16T01:29:33.215Z,1.02
2023-03-16T01:32:01.355Z,1.07
2023-03-16T01:34:28.668Z,1.09
2023-03-16T01:36:55.710Z,1.06
2023-03-16T01:39:22.387Z,1.09
2023-03-16T01:41:49.748Z,1.11
2023-03-16T01:44:22.475Z,1.07
2023-03-16T01:46:49.337Z,1.03
2023-03-16T01:49:25.427Z,0.91
2023-03-16T01:51:58.331Z,0.74
2023-03-16T01:54:51.061Z,0.60
2023-03-16T01:57:20.578Z,0.54
2023-03-16T01:59:50.751Z,0.55
2023-03-16T02:02:21.608Z,0.50
2023-03-16T02:05:15.538Z,0.39
2023-03-16T02:07:46.749Z,0.32
2023-03-16T02:10:15.658Z,0.29
2023-03-16T02:12:43.116Z,0.29
2023-03-16T02:15:11.534Z,0.24
2023-03-16T02:17:38.211Z,0.25
2023-03-16T02:20:23.392Z,0.14
2023-03-16T02:22:54.829Z,0.08
2023-03-16T02:25:26.406Z,0.05
2023-03-16T02:28:05.122Z,0.01
2023-03-16T02:30:32.360Z,0.06
2023-03-16T02:32:59.089Z,0.02
2023-03-16T02:35:26.354Z,0.01
2023-03-16T02:37:52.982Z,-0.01
2023-03-16T02:40:23.915Z,0.03
2023-03-16T02:42:56.326Z,0.01
2023-03-16T02:45:27.586Z,0.05
2023-03-16T02:47:57.960Z,0.09
2023-03-16T02:50:24.570Z,0.09
2023-03-16T02:52:51.129Z,0.09
2023-03-16T02:55:17.714Z,0.12
2023-03-16T02:57:44.358Z,0.06
2023-03-16T03:00:19.155Z,0.04
2023-03-16T03:02:46.148Z,0.06
2023-03-16T03:05:12.987Z,0.10
2023-03-16T03:07:39.764Z,0.06
2023-03-16T03:10:07.229Z,0.09
2023-03-16T03:12:34.506Z,0.06
2023-03-16T03:15:01.090Z,0.03
2023-03-16T03:17:30.445Z,0.04
2023-03-16T03:20:02.458Z,-0.02
2023-03-16T03:22:29.516Z,-0.04
2023-03-16T03:24:56.171Z,-0.02
2023-03-16T03:27:22.962Z,-0.04
2023-03-16T03:29:49.604Z,-0.05
2023-03-16T03:32:16.507Z,-0.07
2023-03-16T03:34:43.204Z,-0.06
2023-03-16T03:37:10.268Z,-0.05
2023-03-16T03:39:37.129Z,-0.12
2023-03-16T03:42:03.833Z,-0.09
2023-03-16T03:44:32.848Z,-0.07
2023-03-16T03:46:59.560Z,-0.09
2023-03-16T03:49:26.298Z,-0.02
2023-03-16T03:51:52.888Z,-0.06
2023-03-16T03:54:19.772Z,0.03
2023-03-16T03:56:46.366Z,-0.03
2023-03-16T03:59:12.999Z,-0.09
2023-03-16T04:01:39.638Z,0.05
2023-03-16T04:04:06.236Z,0.06
2023-03-16T04:06:33.169Z,0.16
2023-03-16T04:08:59.835Z,0.02
2023-03-16T04:11:26.531Z,0.13
2023-03-16T04:13:53.457Z,0.18
2023-03-16T04:16:21.136Z,0.16
2023-03-16T04:18:48.044Z,0.16
2023-03-16T04:21:17.118Z,0.14
2023-03-16T04:23:44.486Z,0.31
2023-03-16T04:26:11.405Z,0.25
2023-03-16T04:28:38.163Z,0.36
2023-03-16T04:31:07.221Z,0.18
2023-03-16T04:33:38.888Z,0.21
2023-03-16T04:36:06.953Z,0.20
2023-03-16T04:38:34.229Z,0.17
2023-03-16T04:41:03.246Z,0.13
2023-03-16T04:43:34.352Z,0.05
2023-03-16T04:46:02.693Z,0.13
2023-03-16T04:48:30.288Z,-0.05
2023-03-16T04:50:57.314Z,-0.08
2023-03-16T04:53:24.022Z,-0.04
2023-03-16T04:55:51.369Z,-0.04
2023-03-16T04:58:18.037Z,-0.04
2023-03-16T05:00:45.593Z,-0.15
2023-03-16T05:03:12.400Z,-0.10
2023-03-16T05:05:40.100Z,-0.06
2023-03-16T05:08:07.429Z,-0.09
2023-03-16T05:10:35.179Z,-0.07
2023-03-16T05:13:01.955Z,-0.15
2023-03-16T05:15:28.791Z,-0.08
2023-03-16T05:17:56.360Z,-0.11
2023-03-16T05:20:24.008Z,-0.13
2023-03-16T05:22:51.328Z,-0.18
2023-03-16T05:25:19.640Z,-0.10
2023-03-16T05:27:49.749Z,-0.16
2023-03-16T05:30:17.662Z,-0.22
2023-03-16T05:32:45.550Z,-0.14
2023-03-16T05:35:13.632Z,-0.17
2023-03-16T05:37:41.781Z,-0.11
2023-03-16T05:40:16.993Z,-0.17
2023-03-16T05:42:48.611Z,-0.24
2023-03-16T05:45:16.969Z,-0.17
2023-03-16T05:47:44.451Z,-0.19
2023-03-16T05:50:13.200Z,-0.15
2023-03-16T05:52:40.909Z,-0.05
2023-03-16T05:55:09.657Z,-0.11
2023-03-16T05:57:36.266Z,0.02
2023-03-16T06:00:14.402Z,0.03
2023-03-16T06:02:47.753Z,0.08
2023-03-16T06:05:15.692Z,0.16
2023-03-16T06:07:42.522Z,0.17
2023-03-16T06:10:10.061Z,0.11
2023-03-16T06:12:36.693Z,0.22
2023-03-16T06:15:07.382Z,0.24
2023-03-16T06:17:35.257Z,0.33
2023-03-16T06:20:02.658Z,0.33
2023-03-16T06:22:30.522Z,0.44
2023-03-16T06:24:57.560Z,0.47
2023-03-16T06:27:26.652Z,0.48
2023-03-16T06:29:53.354Z,0.42
2023-03-16T06:32:20.476Z,0.53
2023-03-16T06:34:47.114Z,0.46
2023-03-16T06:37:14.692Z,0.50
2023-03-16T06:39:41.915Z,0.42
2023-03-16T06:42:08.619Z,0.34
2023-03-16T06:44:35.298Z,0.34
2023-03-16T06:47:02.137Z,0.38
2023-03-16T06:49:28.898Z,0.32
2023-03-16T06:51:56.816Z,0.29
2023-03-16T06:54:23.397Z,0.43
2023-03-16T06:56:49.976Z,0.38
2023-03-16T06:59:16.659Z,0.36
2023-03-16T07:01:45.052Z,0.23
2023-03-16T07:04:12.853Z,0.31
2023-03-16T07:06:39.692Z,0.24
2023-03-16T07:09:06.333Z,0.17
2023-03-16T07:11:33.236Z,0.35
2023-03-16T07:14:00.541Z,0.39
2023-03-16T07:16:28.498Z,0.35
2023-03-16T07:18:55.431Z,0.53
2023-03-16T07:21:22.152Z,0.62
2023-03-16T07:23:48.916Z,0.68
2023-03-16T07:26:15.576Z,0.73
2023-03-16T07:28:42.264Z,0.93
2023-03-16T07:31:09.738Z,0.81
2023-03-16T07:33:36.797Z,1.07
2023-03-16T07:36:04.563Z,1.03
2023-03-16T07:38:32.848Z,1.09
2023-03-16T07:41:00.617Z,1.11
2023-03-16T07:43:27.649Z,1.10
2023-03-16T07:45:54.442Z,1.06
2023-03-16T07:48:21.580Z,1.12
2023-03-16T07:50:49.334Z,1.16
2023-03-16T07:53:16.346Z,1.10
2023-03-16T07:55:43.513Z,1.24
2023-03-16T07:58:11.578Z,1.23
2023-03-16T08:00:39.256Z,1.34
2023-03-16T08:03:06.047Z,1.16
2023-03-16T08:05:33.101Z,1.25
2023-03-16T08:08:01.876Z,1.17
2023-03-16T08:10:29.638Z,1.37
2023-03-16T08:12:56.557Z,1.20
2023-03-16T08:15:23.847Z,1.36
2023-03-16T08:17:50.584Z,1.51
2023-03-16T08:20:19.188Z,1.51
2023-03-16T08:22:46.873Z,1.59
2023-03-16T08:25:14.849Z,1.94
2023-03-16T08:27:43.042Z,1.98
2023-03-16T08:30:11.948Z,2.06
2023-03-16T08:32:42.415Z,1.86
2023-03-16T08:35:13.910Z,1.74
2023-03-16T08:37:41.838Z,1.85
2023-03-16T08:40:14.254Z,1.79
2023-03-16T08:42:41.608Z,1.84
2023-03-16T08:45:14.300Z,1.98
2023-03-16T08:47:41.715Z,2.09
2023-03-16T08:50:10.266Z,2.02
2023-03-16T08:52:36.941Z,2.04
2023-03-16T08:55:05.878Z,2.35
2023-03-16T08:57:35.730Z,2.21
2023-03-16T09:00:09.291Z,2.12
2023-03-16T09:02:38.831Z,2.04
2023-03-16T09:05:06.286Z,1.96
2023-03-16T09:07:35.702Z,1.95
2023-03-16T09:10:05.612Z,1.93
2023-03-16T09:12:35.569Z,1.95
2023-03-16T09:15:02.281Z,1.93
2023-03-16T09:17:28.964Z,1.98
2023-03-16T09:20:03.054Z,2.17
2023-03-16T09:22:35.647Z,2.09
2023-03-16T09:25:02.579Z,2.06
2023-03-16T09:27:29.277Z,2.21
2023-03-16T09:29:56.629Z,2.21
2023-03-16T09:32:23.258Z,2.32
2023-03-16T09:34:49.927Z,2.10
2023-03-16T09:37:16.558Z,2.12
2023-03-16T09:39:43.589Z,2.20
2023-03-16T09:42:19.704Z,2.09
2023-03-16T09:45:11.186Z,2.11
2023-03-16T09:47:38.706Z,1.93
2023-03-16T09:50:09.786Z,1.99
2023-03-16T09:52:51.642Z,1.92
2023-03-16T09:55:33.265Z,2.03
2023-03-16T09:58:01.599Z,2.10
2023-03-16T10:00:37.663Z,1.95
2023-03-16T10:03:17.724Z,2.13
2023-03-16T10:05:44.925Z,2.18
2023-03-16T10:08:26.041Z,2.24
2023-03-16T10:11:13.804Z,2.35
2023-03-16T10:13:51.119Z,2.44
2023-03-16T10:16:40.075Z,2.42
2023-03-16T10:19:43.722Z,2.48
2023-03-16T10:33:43.242Z,2.66
2023-03-16T10:36:25.529Z,2.61
2023-03-16T10:39:06.940Z,2.61
2023-03-16T10:41:40.309Z,2.55
2023-03-16T10:44:12.373Z,2.78
2023-03-16T10:46:49.908Z,2.81
2023-03-16T10:49:25.406Z,2.66
2023-03-16T10:51:54.947Z,2.68
2023-03-16T10:54:40.088Z,2.60
2023-03-16T10:57:16.817Z,2.69
2023-03-16T10:59:49.744Z,2.83
2023-03-16T11:02:20.799Z,2.90
2023-03-16T11:04:47.987Z,2.84
2023-03-16T11:07:19.636Z,2.86
2023-03-16T11:09:47.774Z,2.72
2023-03-16T11:12:41.474Z,2.78
2023-03-16T11:15:32.558Z,2.69
2023-03-16T11:17:59.385Z,2.68
2023-03-16T11:20:28.841Z,2.74
2023-03-16T11:22:56.351Z,2.85
2023-03-16T11:25:35.584Z,2.84
2023-03-16T11:28:24.716Z,2.86
2023-03-16T11:31:28.758Z,3.01
2023-03-16T11:33:57.586Z,3.05
2023-03-16T11:36:57.065Z,2.88
2023-03-16T11:39:23.563Z,2.96
2023-03-16T11:42:13.904Z,2.83
2023-03-16T11:44:45.193Z,2.93
2023-03-16T11:47:45.922Z,2.79
2023-03-16T11:50:33.739Z,2.85
2023-03-16T11:53:41.306Z,3.07
2023-03-16T11:56:29.731Z,3.07
2023-03-16T11:59:17.586Z,2.68
2023-03-16T12:02:09.278Z,2.62
2023-03-16T12:04:57.356Z,2.60
2023-03-16T12:07:45.711Z,2.39
2023-03-16T12:10:22.438Z,2.55
2023-03-16T12:13:02.371Z,2.55
2023-03-16T12:15:54.621Z,2.58
2023-03-16T12:18:27.532Z,2.66
2023-03-16T12:21:04.174Z,2.51
2023-03-16T12:23:36.459Z,2.45
2023-03-16T12:26:03.779Z,2.50
2023-03-16T12:28:32.303Z,2.49
2023-03-16T12:31:21.008Z,2.49
2023-03-16T12:34:10.432Z,2.39
2023-03-16T12:36:58.174Z,2.37
2023-03-16T12:39:40.271Z,2.33
2023-03-16T12:42:19.441Z,2.43
2023-03-16T12:45:04.732Z,2.19
2023-03-16T12:47:57.229Z,2.42
2023-03-16T12:50:24.513Z,2.29
2023-03-16T12:52:53.388Z,2.20
2023-03-16T12:55:23.776Z,2.09
2023-03-16T12:57:58.245Z,1.91
2023-03-16T13:00:35.876Z,1.90
2023-03-16T13:03:03.430Z,1.90
2023-03-16T13:05:34.700Z,2.00
2023-03-16T13:08:14.815Z,2.16
2023-03-16T13:10:42.226Z,2.14
2023-03-16T13:13:15.580Z,2.21
2023-03-16T13:15:47.544Z,2.20
2023-03-16T13:18:21.714Z,2.27
2023-03-16T13:20:48.274Z,2.34
2023-03-16T13:23:24.216Z,2.53
2023-03-16T13:26:10.346Z,2.71
2023-03-16T13:28:38.866Z,2.55
2023-03-16T13:31:24.287Z,2.54
2023-03-16T13:33:55.917Z,2.45
2023-03-16T13:36:25.556Z,2.43
2023-03-16T13:38:58.627Z,2.45
2023-03-16T13:41:25.285Z,2.27
2023-03-16T13:43:51.996Z,2.23
2023-03-16T13:46:22.382Z,2.30
2023-03-16T13:48:49.526Z,2.29
2023-03-16T13:51:22.894Z,2.40
2023-03-16T13:53:50.955Z,2.28
2023-03-16T13:56:24.011Z,2.17
2023-03-16T13:58:52.585Z,2.29
2023-03-16T14:01:31.174Z,2.17
2023-03-16T14:04:03.221Z,2.08
2023-03-16T14:06:31.495Z,2.04
2023-03-16T14:09:03.133Z,1.96
2023-03-16T14:11:30.471Z,2.02
2023-03-16T14:13:59.521Z,2.06
2023-03-16T14:16:32.104Z,2.13
2023-03-16T14:19:03.604Z,1.90
2023-03-16T14:21:34.385Z,1.86
2023-03-16T14:24:16.702Z,1.84
2023-03-16T14:26:46.123Z,1.64
2023-03-16T14:29:21.938Z,1.63
2023-03-16T14:31:49.720Z,1.55
2023-03-16T14:34:30.035Z,1.58
2023-03-16T14:37:34.216Z,1.58
2023-03-16T14:40:07.883Z,1.69
2023-03-16T14:42:35.115Z,1.54
2023-03-16T14:45:06.688Z,1.63
2023-03-16T14:47:41.097Z,1.60
2023-03-16T14:50:13.297Z,1.56
2023-03-16T14:52:40.143Z,1.45
2023-03-16T14:55:25.526Z,1.58
2023-03-16T14:57:53.507Z,1.58
2023-03-16T15:00:22.449Z,1.64
2023-03-16T15:03:15.330Z,1.64
2023-03-16T15:05:46.223Z,1.67
2023-03-16T15:08:37.139Z,1.63
2023-03-16T15:11:06.807Z,1.66
2023-03-16T15:13:36.944Z,1.49
2023-03-16T15:16:05.933Z,1.55
2023-03-16T15:18:33.768Z,1.67
2023-03-16T15:21:02.055Z,1.68
2023-03-16T15:23:30.906Z,1.65
2023-03-16T15:26:00.208Z,1.64
2023-03-16T15:28:27.792Z,1.62
2023-03-16T15:30:57.280Z,1.67
2023-03-16T15:33:25.152Z,1.64
2023-03-16T15:35:55.597Z,1.51
2023-03-16T15:38:29.779Z,1.63
2023-03-16T15:40:56.386Z,1.56
2023-03-16T15:43:25.746Z,1.57
2023-03-16T15:45:54.459Z,1.60
2023-03-16T15:48:24.474Z,1.63
2023-03-16T15:50:57.704Z,1.62
2023-03-16T15:53:31.282Z,1.53
2023-03-16T15:56:04.492Z,1.41
2023-03-16T15:58:34.229Z,1.38
2023-03-16T16:01:02.836Z,1.43
2023-03-16T16:03:29.934Z,1.51
2023-03-16T16:05:56.637Z,1.47
2023-03-16T16:08:23.432Z,1.35
2023-03-16T16:10:53.270Z,1.30
2023-03-16T16:13:43.181Z,1.43
2023-03-16T16:16:16.767Z,1.58
2023-03-16T16:18:43.934Z,1.39
2023-03-16T16:21:26.776Z,1.37
2023-03-16T16:23:53.618Z,1.28
2023-03-16T16:26:48.972Z,1.27
2023-03-16T16:29:24.023Z,1.22
2023-03-16T16:31:54.145Z,1.26
2023-03-16T16:34:24.647Z,1.22
2023-03-16T16:36:52.101Z,1.25
2023-03-16T16:39:18.693Z,1.28
2023-03-16T16:41:46.058Z,1.26
2023-03-16T16:44:42.931Z,1.23
2023-03-16T16:47:22.506Z,1.26
2023-03-16T16:49:49.960Z,1.20
2023-03-16T16:52:18.568Z,1.20
2023-03-16T16:54:45.406Z,1.38
2023-03-16T16:57:18.360Z,1.23
2023-03-16T16:59:48.014Z,1.28
2023-03-16T17:02:31.052Z,1.39
2023-03-16T17:04:57.866Z,1.47
2023-03-16T17:07:24.599Z,1.51
2023-03-16T17:09:51.212Z,1.47
2023-03-16T17:12:22.774Z,1.49
2023-03-16T17:14:50.700Z,1.42
2023-03-16T17:17:18.251Z,1.32
2023-03-16T17:19:46.621Z,1.37
2023-03-16T17:22:25.463Z,1.50
2023-03-16T17:24:53.369Z,1.37
2023-03-16T17:27:25.662Z,1.26
2023-03-16T17:29:53.146Z,1.36
2023-03-16T17:32:22.857Z,1.32
2023-03-16T17:34:51.068Z,1.27
2023-03-16T17:37:21.151Z,1.23
2023-03-16T17:39:48.241Z,1.31
2023-03-16T17:42:22.901Z,1.30
2023-03-16T17:44:52.092Z,1.30
2023-03-16T17:47:26.462Z,1.24
2023-03-16T17:49:54.038Z,1.23
2023-03-16T17:52:26.309Z,1.22
2023-03-16T17:54:53.595Z,1.09
2023-03-16T17:57:28.218Z,0.90
2023-03-16T17:59:55.524Z,0.84
2023-03-16T18:02:39.767Z,0.85
2023-03-16T18:05:16.209Z,0.86
2023-03-16T18:07:42.817Z,0.93
2023-03-16T18:10:16.015Z,0.90
2023-03-16T18:12:44.108Z,0.75
2023-03-16T18:15:16.418Z,0.71
2023-03-16T18:17:43.562Z,0.75
2023-03-16T18:20:30.868Z,0.65
2023-03-16T18:22:58.863Z,0.64
2023-03-16T18:25:33.263Z,0.56
2023-03-16T18:28:01.641Z,0.56
2023-03-16T18:30:29.834Z,0.54
2023-03-16T18:32:57.766Z,0.46
2023-03-16T18:35:24.740Z,0.57
2023-03-16T18:37:53.557Z,0.38
2023-03-16T18:40:20.986Z,0.46
2023-03-16T18:42:48.219Z,0.49
2023-03-16T18:45:18.911Z,0.43
2023-03-16T18:47:53.920Z,0.54
2023-03-16T18:50:27.367Z,0.48
2023-03-16T18:52:55.025Z,0.55
2023-03-16T18:55:25.226Z,0.50
2023-03-16T18:57:56.379Z,0.43
2023-03-16T19:00:26.669Z,0.46
2023-03-16T19:03:03.423Z,0.50
2023-03-16T19:05:35.985Z,0.58
2023-03-16T19:08:04.419Z,0.56
2023-03-16T19:10:36.658Z,0.62
2023-03-16T19:13:03.233Z,0.55
2023-03-16T19:15:32.768Z,0.56
2023-03-16T19:18:00.160Z,0.66
2023-03-16T19:20:29.801Z,0.66
2023-03-16T19:23:13.841Z,0.57
2023-03-16T19:25:42.361Z,0.47
2023-03-16T19:28:21.208Z,0.61
2023-03-16T19:30:48.474Z,0.59
2023-03-16T19:33:25.748Z,0.65
2023-03-16T19:35:54.234Z,0.68
2023-03-16T19:38:23.250Z,0.52
2023-03-16T19:40:57.489Z,0.57
2023-03-16T19:43:26.178Z,0.64
2023-03-16T19:45:54.652Z,0.37
2023-03-16T19:48:33.980Z,0.45
2023-03-16T19:51:01.063Z,0.47
2023-03-16T19:53:27.770Z,0.41
2023-03-16T19:55:54.899Z,0.44
2023-03-16T19:58:35.482Z,0.43
2023-03-16T20:01:02.466Z,0.46
2023-03-16T20:03:34.087Z,0.40
2023-03-16T20:06:00.975Z,0.44
2023-03-16T20:08:29.326Z,0.56
2023-03-16T20:11:07.386Z,0.50
2023-03-16T20:13:36.417Z,0.59
2023-03-16T20:16:03.628Z,0.50
2023-03-16T20:18:30.514Z,0.43
2023-03-16T20:20:57.686Z,0.44
2023-03-16T20:23:27.178Z,0.45
2023-03-16T20:25:56.485Z,0.44
2023-03-16T20:28:36.370Z,0.47
2023-03-16T20:31:05.124Z,0.47
2023-03-16T20:33:31.806Z,0.50
2023-03-16T20:35:58.419Z,0.54
2023-03-16T20:38:25.086Z,0.46
2023-03-16T20:40:54.016Z,0.51
2023-03-16T20:43:25.737Z,0.63
2023-03-16T20:45:57.953Z,0.64
2023-03-16T20:48:25.580Z,0.59
2023-03-16T20:50:53.827Z,0.56
2023-03-16T20:53:21.588Z,0.46
2023-03-16T20:55:49.682Z,0.54
2023-03-16T20:58:29.922Z,0.63
2023-03-16T21:01:01.957Z,0.62
2023-03-16T21:03:30.747Z,0.68
2023-03-16T21:05:59.891Z,0.59
2023-03-16T21:08:26.967Z,0.63
2023-03-16T21:10:56.327Z,0.56
2023-03-16T21:13:30.455Z,0.60
2023-03-16T21:16:00.438Z,0.54
2023-03-16T21:18:28.069Z,0.57
2023-03-16T21:20:56.249Z,0.61
2023-03-16T21:23:24.146Z,0.59
2023-03-16T21:25:57.138Z,0.52
2023-03-16T21:28:26.654Z,0.56
2023-03-16T21:30:56.331Z,0.55
2023-03-16T21:33:32.156Z,0.48
2023-03-16T21:36:02.481Z,0.48
2023-03-16T21:38:30.262Z,0.48
2023-03-16T21:40:57.537Z,0.49
2023-03-16T21:43:24.288Z,0.44
2023-03-16T21:45:52.030Z,0.48
2023-03-16T21:48:22.649Z,0.56
2023-03-16T21:50:50.991Z,0.49
2023-03-16T21:53:22.210Z,0.55
2023-03-16T21:55:50.191Z,0.52
2023-03-16T21:58:17.741Z,0.59
2023-03-16T22:00:45.082Z,0.54
2023-03-16T22:03:29.584Z,0.64
2023-03-16T22:06:00.280Z,0.51
2023-03-16T22:08:30.771Z,0.65
2023-03-16T22:10:57.993Z,0.61
2023-03-16T22:13:26.541Z,0.65
2023-03-16T22:15:58.293Z,0.59
2023-03-16T22:18:28.363Z,0.68
2023-03-16T22:20:59.264Z,0.68
2023-03-16T22:23:34.731Z,0.66
2023-03-16T22:26:06.020Z,0.71
2023-03-16T22:28:33.128Z,0.64
2023-03-16T22:31:03.253Z,0.62
2023-03-16T22:33:34.749Z,0.64
2023-03-16T22:36:06.373Z,0.67
2023-03-16T22:38:33.029Z,0.57
2023-03-16T22:40:59.709Z,0.59
2023-03-16T22:43:31.305Z,0.57
2023-03-16T22:45:58.236Z,0.57
2023-03-16T22:48:26.802Z,0.64
2023-03-16T22:50:55.207Z,0.68
2023-03-16T22:53:39.420Z,0.61
2023-03-16T22:56:06.975Z,0.61
2023-03-16T22:58:40.264Z,0.64
2023-03-16T23:01:37.551Z,0.55
2023-03-16T23:04:13.665Z,0.63
2023-03-16T23:06:40.370Z,0.63
2023-03-16T23:09:06.984Z,0.59
2023-03-16T23:11:35.131Z,0.53
2023-03-16T23:14:02.339Z,0.71
2023-03-16T23:16:36.721Z,0.64
2023-03-16T23:19:07.659Z,0.63
2023-03-16T23:21:39.074Z,0.59
2023-03-16T23:24:06.368Z,0.54
2023-03-16T23:26:33.137Z,0.60
2023-03-16T23:28:59.977Z,0.66
2023-03-16T23:31:27.654Z,0.72
2023-03-16T23:33:54.418Z,0.73
2023-03-16T23:36:23.347Z,0.82
2023-03-16T23:38:50.619Z,0.82
2023-03-16T23:41:21.093Z,0.85
2023-03-16T23:43:48.939Z,0.75
2023-03-16T23:46:19.706Z,0.77
2023-03-16T23:48:48.050Z,0.74
2023-03-16T23:51:25.785Z,0.66
2023-03-16T23:53:53.139Z,0.60
2023-03-16T23:56:20.655Z,0.68
2023-03-16T23:58:47.282Z,0.60
